sensor_id;sensor_type;location;lat;lon;timestamp;P1;P2;P0
69349;PMS5003;64554;43.452;4.934;2023-09-30T00:01:28;10.60;10.60;6.60
69349;PMS5003;64554;43.452;4.934;2023-09-30T00:03:55;11.40;11.40;4.00
69349;PMS5003;64554;43.452;4.934;2023-09-30T00:06:22;10.00;9.75;7.75
69349;PMS5003;64554;43.452;4.934;2023-09-30T00:08:49;11.40;10.60;7.60
69349;PMS5003;64554;43.452;4.934;2023-09-30T00:11:15;10.75;9.75;6.75
69349;PMS5003;64554;43.452;4.934;2023-09-30T00:13:43;9.00;7.50;5.50
69349;PMS5003;64554;43.452;4.934;2023-09-30T00:16:09;9.75;8.75;5.75
69349;PMS5003;64554;43.452;4.934;2023-09-30T00:18:36;9.00;8.00;5.50
69349;PMS5003;64554;43.452;4.934;2023-09-30T00:21:02;7.50;7.50;4.75
69349;PMS5003;64554;43.452;4.934;2023-09-30T00:23:29;8.50;8.00;5.50
69349;PMS5003;64554;43.452;4.934;2023-09-30T00:25:55;9.80;9.00;5.00
69349;PMS5003;64554;43.452;4.934;2023-09-30T00:28:22;9.80;7.80;5.80
69349;PMS5003;64554;43.452;4.934;2023-09-30T00:30:48;8.25;8.25;4.75
69349;PMS5003;64554;43.452;4.934;2023-09-30T00:33:16;9.80;8.80;5.00
69349;PMS5003;64554;43.452;4.934;2023-09-30T00:35:43;8.80;7.40;5.40
69349;PMS5003;64554;43.452;4.934;2023-09-30T00:38:09;11.40;8.40;4.40
69349;PMS5003;64554;43.452;4.934;2023-09-30T00:40:36;8.20;8.20;5.60
69349;PMS5003;64554;43.452;4.934;2023-09-30T00:43:03;9.60;7.40;5.00
69349;PMS5003;64554;43.452;4.934;2023-09-30T00:45:30;8.00;8.00;4.80
69349;PMS5003;64554;43.452;4.934;2023-09-30T00:47:56;11.25;8.50;4.75
69349;PMS5003;64554;43.452;4.934;2023-09-30T00:50:23;10.50;7.50;4.50
69349;PMS5003;64554;43.452;4.934;2023-09-30T00:52:50;10.00;10.00;4.50
69349;PMS5003;64554;43.452;4.934;2023-09-30T00:55:16;7.20;7.20;3.40
69349;PMS5003;64554;43.452;4.934;2023-09-30T00:57:43;16.00;14.25;6.75
69349;PMS5003;64554;43.452;4.934;2023-09-30T01:00:10;8.00;8.00;5.40
69349;PMS5003;64554;43.452;4.934;2023-09-30T01:02:39;11.75;10.75;5.75
69349;PMS5003;64554;43.452;4.934;2023-09-30T01:05:07;9.40;7.40;4.60
69349;PMS5003;64554;43.452;4.934;2023-09-30T01:07:34;10.80;8.80;3.80
69349;PMS5003;64554;43.452;4.934;2023-09-30T01:10:01;12.60;9.00;4.60
69349;PMS5003;64554;43.452;4.934;2023-09-30T01:12:28;10.60;9.00;5.00
69349;PMS5003;64554;43.452;4.934;2023-09-30T01:14:58;10.80;9.40;5.20
69349;PMS5003;64554;43.452;4.934;2023-09-30T01:17:26;10.50;8.50;4.00
69349;PMS5003;64554;43.452;4.934;2023-09-30T01:19:52;9.25;9.25;5.25
69349;PMS5003;64554;43.452;4.934;2023-09-30T01:22:19;10.40;8.80;4.40
69349;PMS5003;64554;43.452;4.934;2023-09-30T01:24:45;9.80;8.40;4.40
69349;PMS5003;64554;43.452;4.934;2023-09-30T01:27:13;11.40;10.00;4.60
69349;PMS5003;64554;43.452;4.934;2023-09-30T01:29:42;9.75;9.75;5.75
69349;PMS5003;64554;43.452;4.934;2023-09-30T01:32:09;14.33;11.67;4.33
69349;PMS5003;64554;43.452;4.934;2023-09-30T01:34:36;10.50;9.00;5.00
69349;PMS5003;64554;43.452;4.934;2023-09-30T01:37:03;8.60;7.40;3.40
69349;PMS5003;64554;43.452;4.934;2023-09-30T01:39:29;8.40;8.00;5.40
69349;PMS5003;64554;43.452;4.934;2023-09-30T01:41:56;10.00;9.00;4.00
69349;PMS5003;64554;43.452;4.934;2023-09-30T01:44:23;12.00;12.00;6.00
69349;PMS5003;64554;43.452;4.934;2023-09-30T01:46:49;13.20;9.00;7.00
69349;PMS5003;64554;43.452;4.934;2023-09-30T01:49:16;15.60;11.60;6.60
69349;PMS5003;64554;43.452;4.934;2023-09-30T01:51:44;11.00;10.00;5.00
69349;PMS5003;64554;43.452;4.934;2023-09-30T01:54:12;13.25;9.50;4.25
69349;PMS5003;64554;43.452;4.934;2023-09-30T01:56:38;9.60;7.60;4.60
69349;PMS5003;64554;43.452;4.934;2023-09-30T01:59:05;8.40;8.40;3.60
69349;PMS5003;64554;43.452;4.934;2023-09-30T02:01:32;14.00;9.75;6.25
69349;PMS5003;64554;43.452;4.934;2023-09-30T02:03:58;8.80;8.40;4.80
69349;PMS5003;64554;43.452;4.934;2023-09-30T02:06:25;10.00;9.00;4.00
69349;PMS5003;64554;43.452;4.934;2023-09-30T02:08:52;7.00;7.00;4.60
69349;PMS5003;64554;43.452;4.934;2023-09-30T02:11:18;8.00;8.00;4.00
69349;PMS5003;64554;43.452;4.934;2023-09-30T02:13:45;6.50;6.50;3.50
69349;PMS5003;64554;43.452;4.934;2023-09-30T02:16:12;9.00;8.00;4.00
69349;PMS5003;64554;43.452;4.934;2023-09-30T02:18:42;14.50;8.50;3.50
69349;PMS5003;64554;43.452;4.934;2023-09-30T02:21:08;10.00;8.40;3.40
69349;PMS5003;64554;43.452;4.934;2023-09-30T02:23:35;7.60;7.60;4.40
69349;PMS5003;64554;43.452;4.934;2023-09-30T02:26:02;9.75;8.75;3.00
69349;PMS5003;64554;43.452;4.934;2023-09-30T02:28:29;12.00;10.40;5.40
69349;PMS5003;64554;43.452;4.934;2023-09-30T02:31:01;7.80;7.80;3.80
69349;PMS5003;64554;43.452;4.934;2023-09-30T02:33:28;13.00;8.50;4.25
69349;PMS5003;64554;43.452;4.934;2023-09-30T02:35:54;12.75;12.75;5.75
69349;PMS5003;64554;43.452;4.934;2023-09-30T02:38:21;8.00;6.40;2.40
69349;PMS5003;64554;43.452;4.934;2023-09-30T02:40:49;8.00;5.40;2.20
69349;PMS5003;64554;43.452;4.934;2023-09-30T02:43:18;14.25;8.50;4.25
69349;PMS5003;64554;43.452;4.934;2023-09-30T02:45:44;13.00;9.00;5.00
69349;PMS5003;64554;43.452;4.934;2023-09-30T02:48:11;6.50;6.50;3.25
69349;PMS5003;64554;43.452;4.934;2023-09-30T02:50:37;7.75;5.50;3.50
69349;PMS5003;64554;43.452;4.934;2023-09-30T02:53:05;13.25;12.00;4.00
69349;PMS5003;64554;43.452;4.934;2023-09-30T02:55:32;9.60;8.00;3.40
69349;PMS5003;64554;43.452;4.934;2023-09-30T02:57:58;11.80;8.80;5.80
69349;PMS5003;64554;43.452;4.934;2023-09-30T03:00:27;9.75;9.00;3.00
69349;PMS5003;64554;43.452;4.934;2023-09-30T03:02:53;12.00;6.00;2.75
69349;PMS5003;64554;43.452;4.934;2023-09-30T03:05:20;10.80;9.00;4.00
69349;PMS5003;64554;43.452;4.934;2023-09-30T03:07:47;6.25;6.25;3.00
69349;PMS5003;64554;43.452;4.934;2023-09-30T03:10:14;9.00;6.50;5.00
69349;PMS5003;64554;43.452;4.934;2023-09-30T03:12:47;7.60;6.60;3.60
69349;PMS5003;64554;43.452;4.934;2023-09-30T03:15:14;9.50;9.50;5.00
69349;PMS5003;64554;43.452;4.934;2023-09-30T03:17:41;9.75;6.50;3.50
69349;PMS5003;64554;43.452;4.934;2023-09-30T03:20:08;6.00;6.00;1.60
69349;PMS5003;64554;43.452;4.934;2023-09-30T03:22:40;8.00;7.00;3.40
69349;PMS5003;64554;43.452;4.934;2023-09-30T03:25:09;15.80;10.00;3.80
69349;PMS5003;64554;43.452;4.934;2023-09-30T03:27:36;11.25;8.75;5.25
69349;PMS5003;64554;43.452;4.934;2023-09-30T03:30:02;9.20;7.80;3.20
69349;PMS5003;64554;43.452;4.934;2023-09-30T03:32:31;16.00;11.00;3.00
69349;PMS5003;64554;43.452;4.934;2023-09-30T03:35:00;5.80;5.80;2.80
69349;PMS5003;64554;43.452;4.934;2023-09-30T03:37:27;9.25;8.00;4.00
69349;PMS5003;64554;43.452;4.934;2023-09-30T03:39:56;9.80;8.40;3.40
69349;PMS5003;64554;43.452;4.934;2023-09-30T03:42:23;8.80;7.00;3.40
69349;PMS5003;64554;43.452;4.934;2023-09-30T03:44:49;8.80;7.40;5.00
69349;PMS5003;64554;43.452;4.934;2023-09-30T03:47:16;7.00;6.60;2.00
69349;PMS5003;64554;43.452;4.934;2023-09-30T03:49:42;10.60;8.60;3.60
69349;PMS5003;64554;43.452;4.934;2023-09-30T03:52:09;6.50;6.50;2.50
69349;PMS5003;64554;43.452;4.934;2023-09-30T03:54:40;13.00;8.60;4.60
69349;PMS5003;64554;43.452;4.934;2023-09-30T03:57:08;7.00;7.00;3.50
69349;PMS5003;64554;43.452;4.934;2023-09-30T03:59:34;9.00;7.00;5.00
69349;PMS5003;64554;43.452;4.934;2023-09-30T04:02:00;11.00;8.00;3.50
69349;PMS5003;64554;43.452;4.934;2023-09-30T04:04:27;6.75;6.75;3.50
69349;PMS5003;64554;43.452;4.934;2023-09-30T04:06:54;8.00;6.00;3.50
69349;PMS5003;64554;43.452;4.934;2023-09-30T04:09:21;9.50;8.00;3.00
69349;PMS5003;64554;43.452;4.934;2023-09-30T04:11:47;6.40;6.40;3.80
69349;PMS5003;64554;43.452;4.934;2023-09-30T04:14:14;12.00;9.00;5.00
69349;PMS5003;64554;43.452;4.934;2023-09-30T04:16:43;13.00;8.50;3.50
69349;PMS5003;64554;43.452;4.934;2023-09-30T04:19:11;8.25;8.25;4.25
69349;PMS5003;64554;43.452;4.934;2023-09-30T04:21:37;9.40;7.00;4.40
69349;PMS5003;64554;43.452;4.934;2023-09-30T04:24:05;13.00;11.80;3.60
69349;PMS5003;64554;43.452;4.934;2023-09-30T04:26:33;13.00;10.75;3.75
69349;PMS5003;64554;43.452;4.934;2023-09-30T04:28:59;8.20;5.80;2.60
69349;PMS5003;64554;43.452;4.934;2023-09-30T04:31:28;10.00;6.75;4.00
69349;PMS5003;64554;43.452;4.934;2023-09-30T04:33:55;10.40;9.20;4.60
69349;PMS5003;64554;43.452;4.934;2023-09-30T04:36:24;9.40;8.40;3.40
69349;PMS5003;64554;43.452;4.934;2023-09-30T04:38:51;13.40;8.40;4.40
69349;PMS5003;64554;43.452;4.934;2023-09-30T04:41:17;10.60;6.00;4.60
69349;PMS5003;64554;43.452;4.934;2023-09-30T04:43:45;7.40;6.60;2.60
69349;PMS5003;64554;43.452;4.934;2023-09-30T04:46:12;12.50;8.00;4.00
69349;PMS5003;64554;43.452;4.934;2023-09-30T04:48:40;9.50;8.75;2.75
69349;PMS5003;64554;43.452;4.934;2023-09-30T04:51:07;13.80;10.00;4.80
69349;PMS5003;64554;43.452;4.934;2023-09-30T04:53:34;11.00;9.50;5.50
69349;PMS5003;64554;43.452;4.934;2023-09-30T04:56:02;9.40;7.20;3.40
69349;PMS5003;64554;43.452;4.934;2023-09-30T04:58:28;8.00;6.00;4.00
69349;PMS5003;64554;43.452;4.934;2023-09-30T05:00:56;8.50;7.00;3.00
69349;PMS5003;64554;43.452;4.934;2023-09-30T05:03:23;7.25;6.25;2.25
69349;PMS5003;64554;43.452;4.934;2023-09-30T05:05:53;13.40;13.40;6.20
69349;PMS5003;64554;43.452;4.934;2023-09-30T05:08:22;10.40;6.00;3.60
69349;PMS5003;64554;43.452;4.934;2023-09-30T05:10:49;7.00;7.00;3.40
69349;PMS5003;64554;43.452;4.934;2023-09-30T05:13:15;8.25;8.00;3.75
69349;PMS5003;64554;43.452;4.934;2023-09-30T05:15:42;13.75;8.50;2.00
69349;PMS5003;64554;43.452;4.934;2023-09-30T05:18:09;11.00;7.00;4.00
69349;PMS5003;64554;43.452;4.934;2023-09-30T05:20:35;11.00;9.60;4.00
69349;PMS5003;64554;43.452;4.934;2023-09-30T05:23:04;5.67;5.67;3.00
69349;PMS5003;64554;43.452;4.934;2023-09-30T05:25:32;8.00;7.00;4.00
69349;PMS5003;64554;43.452;4.934;2023-09-30T05:27:58;9.00;9.00;4.00
69349;PMS5003;64554;43.452;4.934;2023-09-30T05:30:25;6.20;6.20;3.60
69349;PMS5003;64554;43.452;4.934;2023-09-30T05:32:51;7.75;6.00;2.75
69349;PMS5003;64554;43.452;4.934;2023-09-30T05:35:19;9.40;7.40;3.40
69349;PMS5003;64554;43.452;4.934;2023-09-30T05:37:48;11.50;6.50;3.00
69349;PMS5003;64554;43.452;4.934;2023-09-30T05:40:19;9.60;7.80;6.00
69349;PMS5003;64554;43.452;4.934;2023-09-30T05:42:55;7.40;6.40;2.80
69349;PMS5003;64554;43.452;4.934;2023-09-30T05:45:24;6.40;6.40;2.80
69349;PMS5003;64554;43.452;4.934;2023-09-30T05:47:53;10.00;9.00;4.00
69349;PMS5003;64554;43.452;4.934;2023-09-30T05:50:21;9.00;9.00;4.00
69349;PMS5003;64554;43.452;4.934;2023-09-30T05:52:55;7.75;5.75;2.00
69349;PMS5003;64554;43.452;4.934;2023-09-30T05:55:22;13.00;12.00;3.00
69349;PMS5003;64554;43.452;4.934;2023-09-30T05:57:49;8.60;6.40;3.00
69349;PMS5003;64554;43.452;4.934;2023-09-30T06:00:16;9.00;7.00;4.00
69349;PMS5003;64554;43.452;4.934;2023-09-30T06:03:09;9.50;9.00;4.00
69349;PMS5003;64554;43.452;4.934;2023-09-30T06:05:40;9.60;6.20;3.60
69349;PMS5003;64554;43.452;4.934;2023-09-30T06:08:07;10.00;6.00;3.80
69349;PMS5003;64554;43.452;4.934;2023-09-30T06:10:36;6.20;5.20;2.40
69349;PMS5003;64554;43.452;4.934;2023-09-30T06:13:09;10.60;9.20;3.80
69349;PMS5003;64554;43.452;4.934;2023-09-30T06:15:42;6.40;6.40;3.40
69349;PMS5003;64554;43.452;4.934;2023-09-30T06:18:10;10.60;8.60;3.00
69349;PMS5003;64554;43.452;4.934;2023-09-30T06:20:40;15.75;12.25;2.50
69349;PMS5003;64554;43.452;4.934;2023-09-30T06:23:07;6.50;5.25;1.75
69349;PMS5003;64554;43.452;4.934;2023-09-30T06:25:33;6.50;6.50;4.00
69349;PMS5003;64554;43.452;4.934;2023-09-30T06:28:00;14.00;8.00;4.25
69349;PMS5003;64554;43.452;4.934;2023-09-30T06:30:26;9.00;7.60;5.00
69349;PMS5003;64554;43.452;4.934;2023-09-30T06:32:57;8.00;7.00;3.80
69349;PMS5003;64554;43.452;4.934;2023-09-30T06:35:27;6.80;5.20;3.00
69349;PMS5003;64554;43.452;4.934;2023-09-30T06:37:53;10.00;6.60;3.40
69349;PMS5003;64554;43.452;4.934;2023-09-30T06:40:20;10.00;7.60;3.40
69349;PMS5003;64554;43.452;4.934;2023-09-30T06:42:46;8.00;7.75;3.00
69349;PMS5003;64554;43.452;4.934;2023-09-30T06:45:13;9.20;9.20;4.80
69349;PMS5003;64554;43.452;4.934;2023-09-30T06:47:40;13.20;9.20;3.20
69349;PMS5003;64554;43.452;4.934;2023-09-30T06:50:11;9.00;8.00;4.00
69349;PMS5003;64554;43.452;4.934;2023-09-30T06:52:40;10.25;7.00;3.50
69349;PMS5003;64554;43.452;4.934;2023-09-30T06:55:07;10.50;8.75;3.75
69349;PMS5003;64554;43.452;4.934;2023-09-30T06:57:37;8.00;6.00;3.50
69349;PMS5003;64554;43.452;4.934;2023-09-30T07:00:10;12.50;9.50;4.75
69349;PMS5003;64554;43.452;4.934;2023-09-30T07:02:39;6.00;5.00;3.00
69349;PMS5003;64554;43.452;4.934;2023-09-30T07:05:10;8.80;7.80;3.80
69349;PMS5003;64554;43.452;4.934;2023-09-30T07:07:37;10.80;8.00;4.80
69349;PMS5003;64554;43.452;4.934;2023-09-30T07:10:04;7.00;7.00;3.50
69349;PMS5003;64554;43.452;4.934;2023-09-30T07:12:31;7.00;7.00;4.00
69349;PMS5003;64554;43.452;4.934;2023-09-30T07:15:00;7.00;5.00;2.60
69349;PMS5003;64554;43.452;4.934;2023-09-30T07:17:26;12.40;9.40;2.00
69349;PMS5003;64554;43.452;4.934;2023-09-30T07:19:53;10.00;6.00;2.60
69349;PMS5003;64554;43.452;4.934;2023-09-30T07:22:19;12.80;8.00;3.40
69349;PMS5003;64554;43.452;4.934;2023-09-30T07:25:00;9.80;8.20;3.00
69349;PMS5003;64554;43.452;4.934;2023-09-30T07:27:27;5.80;4.00;2.00
69349;PMS5003;64554;43.452;4.934;2023-09-30T07:29:54;11.40;7.00;3.40
69349;PMS5003;64554;43.452;4.934;2023-09-30T07:32:20;6.67;6.67;3.67
69349;PMS5003;64554;43.452;4.934;2023-09-30T07:34:50;6.00;5.00;2.00
69349;PMS5003;64554;43.452;4.934;2023-09-30T07:37:17;9.00;8.00;4.00
69349;PMS5003;64554;43.452;4.934;2023-09-30T07:39:47;10.00;10.00;3.40
69349;PMS5003;64554;43.452;4.934;2023-09-30T07:42:13;7.00;7.00;4.00
69349;PMS5003;64554;43.452;4.934;2023-09-30T07:44:40;7.60;6.20;1.60
69349;PMS5003;64554;43.452;4.934;2023-09-30T07:47:06;8.20;5.60;2.60
69349;PMS5003;64554;43.452;4.934;2023-09-30T07:49:33;6.20;4.60;2.00
69349;PMS5003;64554;43.452;4.934;2023-09-30T07:51:59;7.00;7.00;3.00
69349;PMS5003;64554;43.452;4.934;2023-09-30T07:54:25;5.60;5.60;1.40
69349;PMS5003;64554;43.452;4.934;2023-09-30T07:56:57;7.40;5.60;2.80
69349;PMS5003;64554;43.452;4.934;2023-09-30T07:59:25;7.00;5.00;2.00
69349;PMS5003;64554;43.452;4.934;2023-09-30T08:01:52;9.00;7.00;3.00
69349;PMS5003;64554;43.452;4.934;2023-09-30T08:04:19;8.80;8.20;3.40
69349;PMS5003;64554;43.452;4.934;2023-09-30T08:06:46;5.00;4.00;3.00
69349;PMS5003;64554;43.452;4.934;2023-09-30T08:09:15;6.20;6.20;2.60
69349;PMS5003;64554;43.452;4.934;2023-09-30T08:11:42;6.60;5.60;2.00
69349;PMS5003;64554;43.452;4.934;2023-09-30T08:14:09;3.80;3.80;1.00
69349;PMS5003;64554;43.452;4.934;2023-09-30T08:16:36;7.00;4.00;1.00
69349;PMS5003;64554;43.452;4.934;2023-09-30T08:19:03;5.80;5.80;2.80
69349;PMS5003;64554;43.452;4.934;2023-09-30T08:21:30;3.20;3.20;1.00
69349;PMS5003;64554;43.452;4.934;2023-09-30T08:23:57;8.00;6.00;2.00
69349;PMS5003;64554;43.452;4.934;2023-09-30T08:26:23;6.75;6.75;2.50
69349;PMS5003;64554;43.452;4.934;2023-09-30T08:28:49;3.50;2.75;0.75
69349;PMS5003;64554;43.452;4.934;2023-09-30T08:31:16;4.75;4.00;2.00
69349;PMS5003;64554;43.452;4.934;2023-09-30T08:33:43;7.00;4.00;2.00
69349;PMS5003;64554;43.452;4.934;2023-09-30T08:36:12;7.00;4.50;1.75
69349;PMS5003;64554;43.452;4.934;2023-09-30T08:38:39;2.20;2.00;0.40
69349;PMS5003;64554;43.452;4.934;2023-09-30T08:41:06;5.20;3.40;2.00
69349;PMS5003;64554;43.452;4.934;2023-09-30T08:43:39;5.25;4.25;1.50
69349;PMS5003;64554;43.452;4.934;2023-09-30T08:46:06;3.50;2.50;1.00
69349;PMS5003;64554;43.452;4.934;2023-09-30T08:48:33;10.00;5.00;2.00
69349;PMS5003;64554;43.452;4.934;2023-09-30T08:51:01;3.75;3.50;1.25
69349;PMS5003;64554;43.452;4.934;2023-09-30T08:53:30;4.20;3.60;0.00
69349;PMS5003;64554;43.452;4.934;2023-09-30T08:55:58;3.50;3.00;1.50
69349;PMS5003;64554;43.452;4.934;2023-09-30T08:58:27;3.00;3.00;0.00
69349;PMS5003;64554;43.452;4.934;2023-09-30T09:00:54;5.60;3.60;0.60
69349;PMS5003;64554;43.452;4.934;2023-09-30T09:03:20;3.00;2.00;1.00
69349;PMS5003;64554;43.452;4.934;2023-09-30T09:05:54;1.00;1.00;0.00
69349;PMS5003;64554;43.452;4.934;2023-09-30T09:08:22;5.00;4.00;2.00
69349;PMS5003;64554;43.452;4.934;2023-09-30T09:10:59;4.00;4.00;2.00
69349;PMS5003;64554;43.452;4.934;2023-09-30T09:13:26;2.00;2.00;0.00
69349;PMS5003;64554;43.452;4.934;2023-09-30T09:16:05;7.40;4.80;3.40
69349;PMS5003;64554;43.452;4.934;2023-09-30T09:18:33;2.00;1.00;0.00
69349;PMS5003;64554;43.452;4.934;2023-09-30T09:23:46;4.00;3.00;1.00
69349;PMS5003;64554;43.452;4.934;2023-09-30T09:26:22;4.50;3.00;2.00
69349;PMS5003;64554;43.452;4.934;2023-09-30T09:28:50;6.00;4.00;2.00
69349;PMS5003;64554;43.452;4.934;2023-09-30T09:31:23;5.00;5.00;1.40
69349;PMS5003;64554;43.452;4.934;2023-09-30T09:33:50;3.50;3.50;1.00
69349;PMS5003;64554;43.452;4.934;2023-09-30T09:36:17;2.00;2.00;0.50
69349;PMS5003;64554;43.452;4.934;2023-09-30T09:38:48;5.00;4.00;1.00
69349;PMS5003;64554;43.452;4.934;2023-09-30T09:41:14;3.00;3.00;1.00
69349;PMS5003;64554;43.452;4.934;2023-09-30T09:43:42;2.40;2.40;0.40
69349;PMS5003;64554;43.452;4.934;2023-09-30T09:46:10;7.00;7.00;1.60
69349;PMS5003;64554;43.452;4.934;2023-09-30T09:48:37;5.80;2.80;1.40
69349;PMS5003;64554;43.452;4.934;2023-09-30T09:51:04;5.33;5.33;3.00
69349;PMS5003;64554;43.452;4.934;2023-09-30T09:53:34;7.00;4.60;1.00
69349;PMS5003;64554;43.452;4.934;2023-09-30T09:56:05;2.00;2.00;0.00
69349;PMS5003;64554;43.452;4.934;2023-09-30T09:58:36;3.80;3.20;1.20
69349;PMS5003;64554;43.452;4.934;2023-09-30T10:01:05;4.60;4.60;2.00
69349;PMS5003;64554;43.452;4.934;2023-09-30T10:03:32;3.25;2.75;1.00
69349;PMS5003;64554;43.452;4.934;2023-09-30T10:05:59;5.00;3.75;1.75
69349;PMS5003;64554;43.452;4.934;2023-09-30T10:08:39;4.75;2.75;2.00
69349;PMS5003;64554;43.452;4.934;2023-09-30T10:11:06;3.40;3.40;1.20
69349;PMS5003;64554;43.452;4.934;2023-09-30T10:19:07;6.20;3.20;1.20
69349;PMS5003;64554;43.452;4.934;2023-09-30T10:21:33;6.00;4.00;2.00
69349;PMS5003;64554;43.452;4.934;2023-09-30T10:26:45;3.40;1.80;0.80
69349;PMS5003;64554;43.452;4.934;2023-09-30T10:29:11;2.00;2.00;0.60
69349;PMS5003;64554;43.452;4.934;2023-09-30T10:31:50;5.60;5.60;2.40
69349;PMS5003;64554;43.452;4.934;2023-09-30T10:34:17;4.50;4.25;2.00
69349;PMS5003;64554;43.452;4.934;2023-09-30T10:36:44;4.00;3.00;1.80
69349;PMS5003;64554;43.452;4.934;2023-09-30T10:39:12;7.20;4.00;2.00
69349;PMS5003;64554;43.452;4.934;2023-09-30T10:46:57;7.40;4.00;2.00
69349;PMS5003;64554;43.452;4.934;2023-09-30T10:51:51;4.50;4.50;3.00
69349;PMS5003;64554;43.452;4.934;2023-09-30T10:54:30;2.75;2.75;1.75
69349;PMS5003;64554;43.452;4.934;2023-09-30T10:56:58;5.50;4.00;2.00
69349;PMS5003;64554;43.452;4.934;2023-09-30T10:59:28;5.00;5.00;3.00
69349;PMS5003;64554;43.452;4.934;2023-09-30T11:01:56;6.00;5.00;3.00
69349;PMS5003;64554;43.452;4.934;2023-09-30T11:04:24;4.00;3.00;1.00
69349;PMS5003;64554;43.452;4.934;2023-09-30T11:06:51;4.20;2.20;0.20
69349;PMS5003;64554;43.452;4.934;2023-09-30T11:09:21;3.50;2.75;1.00
69349;PMS5003;64554;43.452;4.934;2023-09-30T11:11:52;4.40;2.40;0.60
69349;PMS5003;64554;43.452;4.934;2023-09-30T11:14:30;2.80;2.80;1.80
69349;PMS5003;64554;43.452;4.934;2023-09-30T11:19:23;3.60;3.60;1.60
69349;PMS5003;64554;43.452;4.934;2023-09-30T11:21:51;3.00;2.00;1.00
69349;PMS5003;64554;43.452;4.934;2023-09-30T11:24:18;5.50;4.75;2.00
69349;PMS5003;64554;43.452;4.934;2023-09-30T11:26:44;4.25;4.25;2.00
69349;PMS5003;64554;43.452;4.934;2023-09-30T11:29:12;3.00;2.00;0.00
69349;PMS5003;64554;43.452;4.934;2023-09-30T11:31:40;3.80;3.80;1.80
69349;PMS5003;64554;43.452;4.934;2023-09-30T11:34:07;3.40;3.40;1.40
69349;PMS5003;64554;43.452;4.934;2023-09-30T11:36:34;3.25;3.25;1.00
69349;PMS5003;64554;43.452;4.934;2023-09-30T11:39:02;6.60;5.20;2.60
69349;PMS5003;64554;43.452;4.934;2023-09-30T11:41:41;5.00;4.00;2.00
69349;PMS5003;64554;43.452;4.934;2023-09-30T11:44:10;2.20;2.20;1.00
69349;PMS5003;64554;43.452;4.934;2023-09-30T11:46:49;8.00;5.00;1.00
69349;PMS5003;64554;43.452;4.934;2023-09-30T11:51:54;3.40;2.40;1.00
69349;PMS5003;64554;43.452;4.934;2023-09-30T11:54:21;4.40;4.40;1.40
69349;PMS5003;64554;43.452;4.934;2023-09-30T11:56:49;4.20;4.20;2.00
69349;PMS5003;64554;43.452;4.934;2023-09-30T11:59:17;5.60;4.60;3.20
69349;PMS5003;64554;43.452;4.934;2023-09-30T12:01:45;7.00;5.00;2.80
69349;PMS5003;64554;43.452;4.934;2023-09-30T12:04:32;6.20;4.80;2.00
69349;PMS5003;64554;43.452;4.934;2023-09-30T12:06:58;3.00;3.00;0.00
69349;PMS5003;64554;43.452;4.934;2023-09-30T12:09:25;4.00;3.00;1.00
69349;PMS5003;64554;43.452;4.934;2023-09-30T12:11:53;4.00;3.00;1.00
69349;PMS5003;64554;43.452;4.934;2023-09-30T12:14:20;4.25;3.00;2.00
69349;PMS5003;64554;43.452;4.934;2023-09-30T12:16:47;4.00;4.00;2.00
69349;PMS5003;64554;43.452;4.934;2023-09-30T12:19:14;5.50;5.50;2.50
69349;PMS5003;64554;43.452;4.934;2023-09-30T12:21:42;3.00;2.00;1.00
69349;PMS5003;64554;43.452;4.934;2023-09-30T12:24:08;7.00;3.25;1.75
69349;PMS5003;64554;43.452;4.934;2023-09-30T12:26:43;3.60;3.60;0.60
69349;PMS5003;64554;43.452;4.934;2023-09-30T12:29:14;3.20;3.20;0.20
69349;PMS5003;64554;43.452;4.934;2023-09-30T12:31:44;8.00;6.00;2.00
69349;PMS5003;64554;43.452;4.934;2023-09-30T12:34:19;3.20;2.00;1.00
69349;PMS5003;64554;43.452;4.934;2023-09-30T12:36:46;4.00;4.00;3.00
69349;PMS5003;64554;43.452;4.934;2023-09-30T12:39:14;12.00;11.25;2.50
69349;PMS5003;64554;43.452;4.934;2023-09-30T12:41:43;3.80;3.00;1.00
69349;PMS5003;64554;43.452;4.934;2023-09-30T12:44:12;5.80;4.00;0.80
69349;PMS5003;64554;43.452;4.934;2023-09-30T12:46:39;4.40;2.40;1.00
69349;PMS5003;64554;43.452;4.934;2023-09-30T12:49:06;3.00;2.40;1.00
69349;PMS5003;64554;43.452;4.934;2023-09-30T12:51:34;2.67;2.67;0.00
69349;PMS5003;64554;43.452;4.934;2023-09-30T12:54:00;3.25;2.25;1.75
69349;PMS5003;64554;43.452;4.934;2023-09-30T12:56:27;4.00;4.00;2.00
69349;PMS5003;64554;43.452;4.934;2023-09-30T12:58:57;7.50;7.50;3.00
69349;PMS5003;64554;43.452;4.934;2023-09-30T13:01:24;3.75;3.00;2.00
69349;PMS5003;64554;43.452;4.934;2023-09-30T13:03:50;5.75;1.75;1.75
69349;PMS5003;64554;43.452;4.934;2023-09-30T13:06:18;3.80;2.20;1.20
69349;PMS5003;64554;43.452;4.934;2023-09-30T13:08:45;2.60;2.60;0.60
69349;PMS5003;64554;43.452;4.934;2023-09-30T13:11:13;6.80;5.60;2.00
69349;PMS5003;64554;43.452;4.934;2023-09-30T13:13:39;6.00;4.50;3.00
69349;PMS5003;64554;43.452;4.934;2023-09-30T13:16:06;6.25;4.50;3.00
69349;PMS5003;64554;43.452;4.934;2023-09-30T13:18:33;5.75;4.50;2.00
69349;PMS5003;64554;43.452;4.934;2023-09-30T13:21:00;6.50;6.50;3.00
69349;PMS5003;64554;43.452;4.934;2023-09-30T13:23:26;11.20;7.00;3.00
69349;PMS5003;64554;43.452;4.934;2023-09-30T13:25:53;14.20;10.00;3.00
69349;PMS5003;64554;43.452;4.934;2023-09-30T13:28:20;5.20;3.40;1.40
69349;PMS5003;64554;43.452;4.934;2023-09-30T13:30:47;7.00;4.50;1.00
69349;PMS5003;64554;43.452;4.934;2023-09-30T13:33:14;5.00;3.00;2.00
69349;PMS5003;64554;43.452;4.934;2023-09-30T13:35:40;5.00;4.00;2.00
69349;PMS5003;64554;43.452;4.934;2023-09-30T13:38:07;5.80;5.40;2.00
69349;PMS5003;64554;43.452;4.934;2023-09-30T13:40:34;6.00;5.00;2.00
69349;PMS5003;64554;43.452;4.934;2023-09-30T13:43:00;5.50;5.50;2.25
69349;PMS5003;64554;43.452;4.934;2023-09-30T13:45:30;5.75;4.50;2.50
69349;PMS5003;64554;43.452;4.934;2023-09-30T13:47:56;10.75;6.25;2.75
69349;PMS5003;64554;43.452;4.934;2023-09-30T13:50:23;6.25;5.00;2.00
69349;PMS5003;64554;43.452;4.934;2023-09-30T13:52:49;17.40;13.60;4.00
69349;PMS5003;64554;43.452;4.934;2023-09-30T13:55:16;15.00;13.00;5.00
69349;PMS5003;64554;43.452;4.934;2023-09-30T13:57:45;15.50;12.75;5.50
69349;PMS5003;64554;43.452;4.934;2023-09-30T14:00:12;16.20;15.40;5.60
69349;PMS5003;64554;43.452;4.934;2023-09-30T14:02:39;18.75;15.75;6.25
69349;PMS5003;64554;43.452;4.934;2023-09-30T14:05:06;21.00;13.00;6.00
69349;PMS5003;64554;43.452;4.934;2023-09-30T14:07:36;25.60;20.60;8.40
69349;PMS5003;64554;43.452;4.934;2023-09-30T14:10:03;18.40;18.00;4.60
69349;PMS5003;64554;43.452;4.934;2023-09-30T14:12:30;26.50;22.00;7.00
69349;PMS5003;64554;43.452;4.934;2023-09-30T14:14:57;20.80;15.20;7.00
69349;PMS5003;64554;43.452;4.934;2023-09-30T14:17:24;21.40;16.00;6.00
69349;PMS5003;64554;43.452;4.934;2023-09-30T14:19:55;17.60;13.60;6.40
69349;PMS5003;64554;43.452;4.934;2023-09-30T14:22:22;18.00;17.40;7.40
69349;PMS5003;64554;43.452;4.934;2023-09-30T14:24:48;12.50;12.00;5.00
69349;PMS5003;64554;43.452;4.934;2023-09-30T14:27:15;10.50;10.00;5.50
69349;PMS5003;64554;43.452;4.934;2023-09-30T14:29:41;12.00;12.00;6.00
69349;PMS5003;64554;43.452;4.934;2023-09-30T14:32:09;17.60;12.00;5.80
69349;PMS5003;64554;43.452;4.934;2023-09-30T14:34:36;17.80;14.20;8.00
69349;PMS5003;64554;43.452;4.934;2023-09-30T14:37:03;19.25;19.25;6.00
69349;PMS5003;64554;43.452;4.934;2023-09-30T14:39:29;13.00;11.00;5.00
69349;PMS5003;64554;43.452;4.934;2023-09-30T14:41:55;16.75;16.25;8.75
69349;PMS5003;64554;43.452;4.934;2023-09-30T14:44:22;13.00;13.00;5.25